createdAt,value
2022-08-05T00:00:19.605Z,21.79
2022-08-05T00:03:07.790Z,21.76
2022-08-05T00:06:06.540Z,21.72
2022-08-05T00:08:36.254Z,21.68
2022-08-05T00:11:20.709Z,21.64
2022-08-05T00:13:56.511Z,21.61
2022-08-05T00:16:36.571Z,21.57
2022-08-05T00:19:13.441Z,21.53
2022-08-05T00:21:42.580Z,21.49
2022-08-05T00:24:11.380Z,21.47
2022-08-05T00:26:51.954Z,21.43
2022-08-05T00:29:22.559Z,21.40
2022-08-05T00:32:10.576Z,21.36
2022-08-05T00:35:04.760Z,21.33
2022-08-05T00:37:35.770Z,21.29
2022-08-05T00:40:27.362Z,21.27
2022-08-05T00:42:58.806Z,21.23
2022-08-05T00:45:37.899Z,21.21
2022-08-05T00:48:09.355Z,21.18
2022-08-05T00:50:44.364Z,21.14
2022-08-05T00:54:00.302Z,21.11
2022-08-05T00:56:05.734Z,21.08
2022-08-05T00:58:38.535Z,21.05
2022-08-05T01:01:12.360Z,21.01
2022-08-05T01:03:42.149Z,20.99
2022-08-05T01:06:15.286Z,20.96
2022-08-05T01:08:47.119Z,20.93
2022-08-05T01:11:22.348Z,20.91
2022-08-05T01:14:08.777Z,20.87
2022-08-05T01:16:52.403Z,20.85
2022-08-05T01:20:02.341Z,20.82
2022-08-05T01:22:39.551Z,20.79
2022-08-05T01:25:39.656Z,20.76
2022-08-05T01:28:22.425Z,20.74
2022-08-05T01:30:56.031Z,20.71
2022-08-05T01:33:35.589Z,20.69
2022-08-05T01:36:12.695Z,20.66
2022-08-05T01:38:48.314Z,20.63
2022-08-05T01:41:21.763Z,20.60
2022-08-05T01:43:55.178Z,20.58
2022-08-05T01:46:43.092Z,20.56
2022-08-05T01:49:23.420Z,20.53
2022-08-05T01:52:02.213Z,20.51
2022-08-05T01:54:51.949Z,20.48
2022-08-05T01:58:12.657Z,20.45
2022-08-05T02:00:16.390Z,20.43
2022-08-05T02:02:54.949Z,20.39
2022-08-05T02:05:30.964Z,20.35
2022-08-05T02:08:03.657Z,20.33
2022-08-05T02:10:39.016Z,20.30
2022-08-05T02:13:16.061Z,20.28
2022-08-05T02:15:59.119Z,20.25
2022-08-05T02:18:37.133Z,20.21
2022-08-05T02:21:16.245Z,20.17
2022-08-05T02:23:48.508Z,20.14
2022-08-05T02:26:27.119Z,20.12
2022-08-05T02:28:58.257Z,20.09
2022-08-05T02:31:34.783Z,20.07
2022-08-05T02:34:09.208Z,20.04
2022-08-05T02:36:43.994Z,20.01
2022-08-05T02:39:21.359Z,19.99
2022-08-05T02:41:57.821Z,19.97
2022-08-05T02:44:32.178Z,19.93
2022-08-05T02:47:02.601Z,19.90
2022-08-05T02:49:36.577Z,19.88
2022-08-05T02:52:11.508Z,19.84
2022-08-05T02:54:50.659Z,19.82
2022-08-05T02:58:12.112Z,19.79
2022-08-05T03:00:14.646Z,19.77
2022-08-05T03:02:45.197Z,19.75
2022-08-05T03:05:15.338Z,19.73
2022-08-05T03:08:01.155Z,19.69
2022-08-05T03:10:34.422Z,19.66
2022-08-05T03:13:10.859Z,19.63
2022-08-05T03:15:47.479Z,19.62
2022-08-05T03:18:17.436Z,19.60
2022-08-05T03:20:48.966Z,19.59
2022-08-05T03:23:18.944Z,19.57
2022-08-05T03:26:30.088Z,19.55
2022-08-05T03:28:41.503Z,19.53
2022-08-05T03:31:10.852Z,19.52
2022-08-05T03:33:52.911Z,19.51
2022-08-05T03:36:30.070Z,19.49
2022-08-05T03:39:05.530Z,19.47
2022-08-05T03:41:45.232Z,19.46
2022-08-05T03:44:19.845Z,19.45
2022-08-05T03:46:48.629Z,19.45
2022-08-05T03:49:17.383Z,19.43
2022-08-05T03:52:50.547Z,19.42
2022-08-05T03:56:03.748Z,19.42
2022-08-05T03:57:44.520Z,19.41
2022-08-05T04:00:16.486Z,19.42
2022-08-05T04:02:58.120Z,19.44
2022-08-05T04:05:33.942Z,19.48
2022-08-05T04:08:29.640Z,19.53
2022-08-05T04:10:55.353Z,19.60
2022-08-05T04:13:24.440Z,19.65
2022-08-05T04:16:04.167Z,19.71
2022-08-05T04:18:34.483Z,19.76
2022-08-05T04:21:05.258Z,19.81
2022-08-05T04:23:57.106Z,19.87
2022-08-05T04:26:24.571Z,19.93
2022-08-05T04:28:53.238Z,19.99
2022-08-05T04:31:22.226Z,20.05
2022-08-05T04:34:31.960Z,20.11
2022-08-05T04:36:46.324Z,20.17
2022-08-05T04:39:18.497Z,20.24
2022-08-05T04:41:48.277Z,20.29
2022-08-05T04:44:21.450Z,20.36
2022-08-05T04:46:58.503Z,20.42
2022-08-05T04:49:38.465Z,20.47
2022-08-05T04:52:16.563Z,20.51
2022-08-05T04:54:44.995Z,20.54
2022-08-05T04:57:13.377Z,20.55
2022-08-05T04:59:41.729Z,20.57
2022-08-05T05:02:36.679Z,20.61
2022-08-05T05:05:01.713Z,20.62
2022-08-05T05:07:32.709Z,20.63
2022-08-05T05:10:06.347Z,20.64
2022-08-05T05:12:36.742Z,20.65
2022-08-05T05:15:10.722Z,20.66
2022-08-05T05:17:57.037Z,20.69
2022-08-05T05:20:28.826Z,20.72
2022-08-05T05:22:58.359Z,20.75
2022-08-05T05:25:40.568Z,20.77
2022-08-05T05:28:10.428Z,20.79
2022-08-05T05:30:41.619Z,20.83
2022-08-05T05:33:17.082Z,20.86
2022-08-05T05:35:46.582Z,20.91
2022-08-05T05:38:22.231Z,20.94
2022-08-05T05:40:56.907Z,21.02
2022-08-05T05:48:07.140Z,21.22
2022-08-05T05:50:31.235Z,21.37
2022-08-05T05:53:02.552Z,21.47
2022-08-05T05:55:52.264Z,21.59
2022-08-05T05:58:31.403Z,21.68
2022-08-05T06:01:12.320Z,21.78
2022-08-05T06:04:00.400Z,21.89
2022-08-05T06:06:31.075Z,22.01
2022-08-05T06:09:03.994Z,22.15
2022-08-05T06:11:35.286Z,22.36
2022-08-05T06:14:07.924Z,22.61
2022-08-05T06:16:38.468Z,22.72
2022-08-05T06:19:07.417Z,22.76
2022-08-05T06:21:38.869Z,22.79
2022-08-05T06:24:12.853Z,22.82
2022-08-05T06:26:51.801Z,22.87
2022-08-05T06:29:25.063Z,22.94
2022-08-05T06:32:25.585Z,23.03
2022-08-05T06:36:06.822Z,23.10
2022-08-05T06:39:18.837Z,23.16
2022-08-05T06:41:51.022Z,23.24
2022-08-05T06:49:21.289Z,23.41
2022-08-05T06:52:36.952Z,23.52
2022-08-05T07:31:17.445Z,25.41
2022-08-05T08:00:25.047Z,26.45
2022-08-05T09:11:07.768Z,28.28
2022-08-05T09:14:09.517Z,28.29
2022-08-05T09:16:32.819Z,28.27
2022-08-05T09:19:06.706Z,28.27
2022-08-05T09:22:18.377Z,28.23
2022-08-05T09:24:31.772Z,28.22
2022-08-05T09:27:08.481Z,28.25
2022-08-05T09:29:47.980Z,28.28
2022-08-05T09:32:46.012Z,28.30
2022-08-05T09:35:26.808Z,28.30
2022-08-05T09:38:16.459Z,28.34
2022-08-05T09:40:53.750Z,28.37
2022-08-05T09:43:41.614Z,28.36
2022-08-05T09:46:28.825Z,28.39
2022-08-05T09:49:19.621Z,28.40
2022-08-05T09:51:51.846Z,28.41
2022-08-05T09:54:32.360Z,28.45
2022-08-05T09:57:04.269Z,28.46
2022-08-05T09:59:58.122Z,28.52
2022-08-05T10:02:39.459Z,28.57
2022-08-05T10:05:15.410Z,28.61
2022-08-05T10:08:34.653Z,28.64
2022-08-05T10:10:54.354Z,28.69
2022-08-05T10:13:47.792Z,28.73
2022-08-05T10:16:37.754Z,28.76
2022-08-05T10:19:14.782Z,28.76
2022-08-05T10:21:50.143Z,28.76
2022-08-05T10:24:24.958Z,28.77
2022-08-05T10:27:01.232Z,28.77
2022-08-05T10:30:06.719Z,28.77
2022-08-05T10:32:54.429Z,28.87
2022-08-05T10:35:24.062Z,28.96
2022-08-05T10:38:13.985Z,29.04
2022-08-05T10:40:58.009Z,29.09
2022-08-05T10:43:41.414Z,29.13
2022-08-05T10:46:17.716Z,29.15
2022-08-05T10:48:56.967Z,29.16
2022-08-05T10:51:57.510Z,29.17
2022-08-05T10:54:56.076Z,29.17
2022-08-05T10:57:33.885Z,29.13
2022-08-05T11:00:18.736Z,29.11
2022-08-05T11:03:24.924Z,29.09
2022-08-05T11:06:16.234Z,29.11
2022-08-05T11:09:16.607Z,29.17
2022-08-05T11:11:53.653Z,29.22
2022-08-05T11:14:57.502Z,29.27
2022-08-05T11:18:00.151Z,29.32
2022-08-05T11:20:39.188Z,29.34
2022-08-05T11:23:33.626Z,29.41
2022-08-05T11:26:28.484Z,29.51
2022-08-05T11:29:13.345Z,29.58
2022-08-05T11:31:57.405Z,29.62
2022-08-05T11:34:52.215Z,29.63
2022-08-05T11:38:29.052Z,29.66
2022-08-05T11:41:15.457Z,29.73
2022-08-05T11:44:06.418Z,29.81
2022-08-05T11:47:09.271Z,29.84
2022-08-05T11:49:35.328Z,29.86
2022-08-05T11:52:08.643Z,29.87
2022-08-05T11:54:48.557Z,29.86
2022-08-05T11:58:08.260Z,29.92
2022-08-05T12:00:30.624Z,29.94
2022-08-05T12:03:28.859Z,29.97
2022-08-05T12:06:10.020Z,30.04
2022-08-05T12:08:50.956Z,30.10
2022-08-05T12:11:24.877Z,30.14
2022-08-05T12:14:04.385Z,30.18
2022-08-05T12:16:38.505Z,30.24
2022-08-05T12:20:26.092Z,30.27
2022-08-05T12:22:09.731Z,30.31
2022-08-05T12:24:49.462Z,30.34
2022-08-05T12:27:26.605Z,30.38
2022-08-05T12:30:07.880Z,30.41
2022-08-05T12:32:50.778Z,30.42
2022-08-05T12:35:37.238Z,30.41
2022-08-05T12:38:12.194Z,30.40
2022-08-05T12:40:47.262Z,30.41
2022-08-05T12:43:22.297Z,30.39
2022-08-05T12:45:57.113Z,30.40
2022-08-05T12:48:32.905Z,30.41
2022-08-05T12:52:10.178Z,30.43
2022-08-05T12:54:14.687Z,30.50
2022-08-05T12:56:54.035Z,30.58
2022-08-05T12:59:46.936Z,30.65
2022-08-05T13:02:27.303Z,30.72
2022-08-05T13:05:07.006Z,30.76
2022-08-05T13:08:00.377Z,30.75
2022-08-05T13:10:34.325Z,30.72
2022-08-05T13:13:09.030Z,30.72
2022-08-05T13:15:50.892Z,30.73
2022-08-05T13:18:24.042Z,30.78
2022-08-05T13:20:56.229Z,30.89
2022-08-05T13:23:28.120Z,30.94
2022-08-05T13:26:03.782Z,30.96
2022-08-05T13:28:35.640Z,30.96
2022-08-05T13:31:15.943Z,31.02
2022-08-05T13:34:22.397Z,31.07
2022-08-05T13:36:44.035Z,31.17
2022-08-05T13:40:13.041Z,31.24
2022-08-05T13:42:15.122Z,31.27
2022-08-05T13:44:47.706Z,31.30
2022-08-05T13:47:28.085Z,31.31
2022-08-05T13:50:14.830Z,31.28
2022-08-05T13:52:50.058Z,31.22
2022-08-05T13:55:41.474Z,31.19
2022-08-05T13:58:30.176Z,31.18
2022-08-05T14:01:03.057Z,31.17
2022-08-05T14:03:35.881Z,31.13
2022-08-05T14:06:26.611Z,31.10
2022-08-05T14:08:59.458Z,31.08
2022-08-05T14:11:32.008Z,31.08
2022-08-05T14:14:26.084Z,31.05
2022-08-05T14:17:05.483Z,31.03
2022-08-05T14:19:54.391Z,31.03
2022-08-05T14:22:30.290Z,31.06
2022-08-05T14:25:30.079Z,31.05
2022-08-05T14:28:31.359Z,31.01
2022-08-05T14:31:03.373Z,31.01
2022-08-05T14:35:14.394Z,31.00
2022-08-05T14:37:57.869Z,30.99
2022-08-05T14:42:20.937Z,30.99
2022-08-05T14:59:21.850Z,30.98
2022-08-05T15:02:42.835Z,31.03
2022-08-05T15:05:18.629Z,31.01
2022-08-05T15:08:06.200Z,31.00
2022-08-05T15:10:43.521Z,30.98
2022-08-05T15:13:51.441Z,30.97
2022-08-05T15:16:24.841Z,30.94
2022-08-05T15:18:58.505Z,30.97
2022-08-05T15:21:32.816Z,30.99
2022-08-05T15:24:08.325Z,30.96
2022-08-05T15:26:41.379Z,30.96
2022-08-05T15:29:24.142Z,30.88
2022-08-05T15:34:18.506Z,30.91
2022-08-05T15:36:51.074Z,30.95
2022-08-05T15:40:59.098Z,30.98
2022-08-05T15:42:54.680Z,30.98
2022-08-05T15:45:11.397Z,31.00
2022-08-05T15:47:46.027Z,30.99
2022-08-05T15:50:18.965Z,30.99
2022-08-05T15:53:01.837Z,30.95
2022-08-05T16:54:44.361Z,31.69
2022-08-05T16:57:22.074Z,31.45
2022-08-05T17:00:34.639Z,31.25
2022-08-05T17:03:15.450Z,31.11
2022-08-05T17:05:53.618Z,30.98
2022-08-05T17:08:33.640Z,30.87
2022-08-05T17:11:16.848Z,30.73
2022-08-05T17:13:47.180Z,30.59
2022-08-05T17:16:32.714Z,30.47
2022-08-05T17:19:02.194Z,30.35
2022-08-05T17:21:36.236Z,30.26
2022-08-05T17:24:19.368Z,30.18
2022-08-05T17:26:57.307Z,30.10
2022-08-05T17:29:33.302Z,30.04
2022-08-05T17:32:11.940Z,29.93
2022-08-05T17:34:47.522Z,29.86
2022-08-05T17:37:41.495Z,29.80
2022-08-05T17:40:12.460Z,29.73
2022-08-05T17:42:50.783Z,29.65
2022-08-05T17:45:22.081Z,29.57
2022-08-05T17:47:55.077Z,29.52
2022-08-05T17:50:28.517Z,29.41
2022-08-05T17:53:00.387Z,29.32
2022-08-05T17:55:34.214Z,29.24
2022-08-05T17:58:07.009Z,29.17
2022-08-05T18:00:40.874Z,29.09
2022-08-05T18:03:24.120Z,29.00
2022-08-05T18:06:05.333Z,28.91
2022-08-05T18:08:34.076Z,28.84
2022-08-05T18:11:03.440Z,28.80
2022-08-05T18:13:36.814Z,28.73
2022-08-05T18:16:13.820Z,28.67
2022-08-05T18:18:42.341Z,28.61
2022-08-05T18:21:21.314Z,28.53
2022-08-05T18:23:54.505Z,28.47
2022-08-05T18:26:29.155Z,28.41
2022-08-05T18:28:58.989Z,28.34
2022-08-05T18:31:33.080Z,28.28
2022-08-05T18:34:06.138Z,28.21
2022-08-05T18:36:37.911Z,28.14
2022-08-05T18:39:09.979Z,28.09
2022-08-05T18:42:02.180Z,28.04
2022-08-05T18:44:34.916Z,27.99
2022-08-05T18:47:04.969Z,27.95
2022-08-05T18:49:57.820Z,27.90
2022-08-05T18:52:36.451Z,27.87
2022-08-05T18:55:10.311Z,27.84
2022-08-05T18:57:43.316Z,27.80
2022-08-05T19:00:29.381Z,27.76
2022-08-05T19:03:03.796Z,27.73
2022-08-05T19:06:12.872Z,27.70
2022-08-05T19:08:31.368Z,27.69
2022-08-05T19:11:04.446Z,27.69
2022-08-05T19:13:40.138Z,27.66
2022-08-05T19:16:24.964Z,27.60
2022-08-05T19:18:57.775Z,27.60
2022-08-05T19:21:29.609Z,27.59
2022-08-05T19:24:08.921Z,27.59
2022-08-05T19:26:44.064Z,27.59
2022-08-05T19:29:24.185Z,27.61
2022-08-05T19:31:57.489Z,27.58
2022-08-05T19:34:29.628Z,27.56
2022-08-05T19:36:58.826Z,27.51
2022-08-05T19:39:29.466Z,27.46
2022-08-05T19:42:08.128Z,27.40
2022-08-05T19:44:45.012Z,27.33
2022-08-05T19:47:16.345Z,27.22
2022-08-05T19:49:46.051Z,27.13
2022-08-05T19:52:30.418Z,27.07
2022-08-05T19:56:15.272Z,26.98
2022-08-05T19:58:57.580Z,26.90
2022-08-05T20:01:45.951Z,26.86
2022-08-05T20:04:15.413Z,26.80
2022-08-05T20:06:46.547Z,26.74
2022-08-05T20:09:15.357Z,26.69
2022-08-05T20:11:54.362Z,26.65
2022-08-05T20:14:54.157Z,26.56
2022-08-05T20:18:33.133Z,26.54
2022-08-05T20:21:28.212Z,26.47
2022-08-05T20:35:04.482Z,26.49
2022-08-05T20:38:06.087Z,26.39
2022-08-05T20:41:43.485Z,26.18
2022-08-05T20:44:18.788Z,25.99
2022-08-05T20:46:58.061Z,25.88
2022-08-05T20:49:26.632Z,25.76
2022-08-05T20:51:57.503Z,25.60
2022-08-05T20:54:59.821Z,25.49
2022-08-05T20:57:41.803Z,25.41
2022-08-05T21:00:51.814Z,25.33
2022-08-05T21:07:15.336Z,25.07
2022-08-05T21:12:40.939Z,24.82
2022-08-05T21:16:09.182Z,24.80
2022-08-05T21:18:42.963Z,24.73
2022-08-05T21:21:14.362Z,24.68
2022-08-05T21:23:45.914Z,24.55
2022-08-05T21:26:26.392Z,24.45
2022-08-05T21:29:03.840Z,24.35
2022-08-05T21:35:55.393Z,24.16
2022-08-05T21:39:26.507Z,23.98
2022-08-05T21:52:38.926Z,24.19
2022-08-05T21:56:01.235Z,24.09
2022-08-05T21:58:13.336Z,23.95
2022-08-05T22:01:12.461Z,23.88
2022-08-05T22:03:58.494Z,23.78
2022-08-05T22:06:35.333Z,23.70
2022-08-05T22:09:13.657Z,23.62
2022-08-05T22:11:47.810Z,23.56
2022-08-05T22:17:59.846Z,23.48
2022-08-05T22:20:32.322Z,23.42
2022-08-05T22:23:25.470Z,23.33
2022-08-05T22:26:56.812Z,23.16
2022-08-05T22:29:30.705Z,23.08
2022-08-05T22:32:27.118Z,23.05
2022-08-05T22:34:59.126Z,22.94
2022-08-05T22:37:58.111Z,22.82
2022-08-05T22:40:23.919Z,22.77
2022-08-05T22:43:55.235Z,22.74
2022-08-05T22:47:30.055Z,22.66
2022-08-05T22:50:26.515Z,22.55
2022-08-05T22:52:59.136Z,22.54
2022-08-05T22:55:56.522Z,22.52
2022-08-05T22:58:28.261Z,22.51
2022-08-05T23:01:00.662Z,22.47
2022-08-05T23:03:58.034Z,22.47
2022-08-05T23:06:26.411Z,22.43
2022-08-05T23:09:27.122Z,22.34
2022-08-05T23:11:50.281Z,22.30
2022-08-05T23:14:32.021Z,22.28
2022-08-05T23:17:24.187Z,22.28
2022-08-05T23:20:06.002Z,22.20
2022-08-05T23:22:48.342Z,22.14
2022-08-05T23:25:52.961Z,22.08
2022-08-05T23:28:12.882Z,22.04
2022-08-05T23:30:53.069Z,22.02
2022-08-05T23:34:04.700Z,22.02
2022-08-05T23:36:18.034Z,21.97
2022-08-05T23:43:24.309Z,21.85
2022-08-05T23:45:57.715Z,21.83
2022-08-05T23:48:29.564Z,21.83
2022-08-05T23:51:01.330Z,21.80
2022-08-05T23:53:46.708Z,21.79
2022-08-05T23:56:50.856Z,21.75
2022-08-05T23:59:27.788Z,21.72
